sensor_id;sensor_type;location;lat;lon;timestamp;P1;durP1;ratioP1;P2;durP2;ratioP2
46086;SDS011;31824;49.648;8.640;2022-09-21T00:00:02;1.85;;;0.70;;
46086;SDS011;31824;49.648;8.640;2022-09-21T00:03:06;1.02;;;0.55;;
46086;SDS011;31824;49.648;8.640;2022-09-21T00:06:10;1.67;;;1.10;;
46086;SDS011;31824;49.648;8.640;2022-09-21T00:09:12;2.45;;;0.93;;
46086;SDS011;31824;49.648;8.640;2022-09-21T00:12:14;1.48;;;0.50;;
46086;SDS011;31824;49.648;8.640;2022-09-21T00:15:17;2.30;;;0.77;;
46086;SDS011;31824;49.648;8.640;2022-09-21T00:18:19;2.63;;;1.17;;
46086;SDS011;31824;49.648;8.640;2022-09-21T00:21:22;1.35;;;0.50;;
46086;SDS011;31824;49.648;8.640;2022-09-21T00:24:24;1.42;;;0.65;;
46086;SDS011;31824;49.648;8.640;2022-09-21T00:27:26;1.38;;;0.40;;
46086;SDS011;31824;49.648;8.640;2022-09-21T00:30:30;2.35;;;0.80;;
46086;SDS011;31824;49.648;8.640;2022-09-21T00:33:32;0.70;;;0.40;;
46086;SDS011;31824;49.648;8.640;2022-09-21T00:36:35;2.05;;;0.80;;
46086;SDS011;31824;49.648;8.640;2022-09-21T00:39:37;5.35;;;0.73;;
46086;SDS011;31824;49.648;8.640;2022-09-21T00:42:39;3.65;;;0.75;;
46086;SDS011;31824;49.648;8.640;2022-09-21T00:45:40;0.90;;;0.43;;
46086;SDS011;31824;49.648;8.640;2022-09-21T00:48:43;2.00;;;0.60;;
46086;SDS011;31824;49.648;8.640;2022-09-21T00:51:47;3.28;;;0.63;;
46086;SDS011;31824;49.648;8.640;2022-09-21T00:54:51;2.60;;;0.73;;
46086;SDS011;31824;49.648;8.640;2022-09-21T00:57:56;1.38;;;0.43;;
46086;SDS011;31824;49.648;8.640;2022-09-21T01:01:00;0.50;;;0.40;;
46086;SDS011;31824;49.648;8.640;2022-09-21T01:04:02;2.65;;;0.55;;
46086;SDS011;31824;49.648;8.640;2022-09-21T01:07:06;1.67;;;0.57;;
46086;SDS011;31824;49.648;8.640;2022-09-21T01:10:13;2.35;;;0.63;;
46086;SDS011;31824;49.648;8.640;2022-09-21T01:13:20;1.27;;;0.47;;
46086;SDS011;31824;49.648;8.640;2022-09-21T01:16:32;1.75;;;0.70;;
46086;SDS011;31824;49.648;8.640;2022-09-21T01:19:44;1.10;;;0.50;;
46086;SDS011;31824;49.648;8.640;2022-09-21T01:23:10;1.55;;;0.68;;
46086;SDS011;31824;49.648;8.640;2022-09-21T01:26:35;0.82;;;0.40;;
46086;SDS011;31824;49.648;8.640;2022-09-21T01:29:50;1.83;;;0.50;;
46086;SDS011;31824;49.648;8.640;2022-09-21T01:32:55;0.95;;;0.47;;
46086;SDS011;31824;49.648;8.640;2022-09-21T01:36:06;0.82;;;0.40;;
46086;SDS011;31824;49.648;8.640;2022-09-21T01:39:12;0.95;;;0.50;;
46086;SDS011;31824;49.648;8.640;2022-09-21T01:42:17;2.08;;;0.52;;
46086;SDS011;31824;49.648;8.640;2022-09-21T01:45:23;2.10;;;0.43;;
46086;SDS011;31824;49.648;8.640;2022-09-21T01:48:31;3.28;;;0.50;;
46086;SDS011;31824;49.648;8.640;2022-09-21T01:51:35;3.45;;;0.50;;
46086;SDS011;31824;49.648;8.640;2022-09-21T01:54:44;1.65;;;0.68;;
46086;SDS011;31824;49.648;8.640;2022-09-21T01:57:51;1.15;;;0.57;;
46086;SDS011;31824;49.648;8.640;2022-09-21T02:00:59;0.90;;;0.40;;
46086;SDS011;31824;49.648;8.640;2022-09-21T02:04:02;1.20;;;0.38;;
46086;SDS011;31824;49.648;8.640;2022-09-21T02:07:09;0.82;;;0.30;;
46086;SDS011;31824;49.648;8.640;2022-09-21T02:10:12;1.58;;;0.40;;
46086;SDS011;31824;49.648;8.640;2022-09-21T02:13:19;1.88;;;0.40;;
46086;SDS011;31824;49.648;8.640;2022-09-21T02:16:30;2.28;;;0.93;;
46086;SDS011;31824;49.648;8.640;2022-09-21T02:19:39;0.60;;;0.30;;
46086;SDS011;31824;49.648;8.640;2022-09-21T02:22:53;3.30;;;0.55;;
46086;SDS011;31824;49.648;8.640;2022-09-21T02:26:04;1.02;;;0.50;;
46086;SDS011;31824;49.648;8.640;2022-09-21T02:29:13;1.48;;;0.40;;
46086;SDS011;31824;49.648;8.640;2022-09-21T02:32:24;1.45;;;0.52;;
46086;SDS011;31824;49.648;8.640;2022-09-21T02:35:34;0.75;;;0.40;;
46086;SDS011;31824;49.648;8.640;2022-09-21T02:38:41;0.98;;;0.22;;
46086;SDS011;31824;49.648;8.640;2022-09-21T02:41:51;0.82;;;0.32;;
46086;SDS011;31824;49.648;8.640;2022-09-21T02:45:02;0.45;;;0.30;;
46086;SDS011;31824;49.648;8.640;2022-09-21T02:48:10;2.28;;;0.70;;
46086;SDS011;31824;49.648;8.640;2022-09-21T02:51:16;1.25;;;0.50;;
46086;SDS011;31824;49.648;8.640;2022-09-21T02:54:23;2.15;;;0.85;;
46086;SDS011;31824;49.648;8.640;2022-09-21T02:57:29;1.02;;;0.43;;
46086;SDS011;31824;49.648;8.640;2022-09-21T03:00:31;0.73;;;0.40;;
46086;SDS011;31824;49.648;8.640;2022-09-21T03:03:36;1.10;;;0.32;;
46086;SDS011;31824;49.648;8.640;2022-09-21T03:06:37;1.35;;;0.50;;
46086;SDS011;31824;49.648;8.640;2022-09-21T03:09:39;0.65;;;0.40;;
46086;SDS011;31824;49.648;8.640;2022-09-21T03:16:44;3.20;;;0.90;;
46086;SDS011;31824;49.648;8.640;2022-09-21T03:19:48;1.60;;;0.50;;
46086;SDS011;31824;49.648;8.640;2022-09-21T03:22:49;0.65;;;0.30;;
46086;SDS011;31824;49.648;8.640;2022-09-21T03:25:51;0.32;;;0.20;;
46086;SDS011;31824;49.648;8.640;2022-09-21T03:28:52;1.13;;;0.32;;
46086;SDS011;31824;49.648;8.640;2022-09-21T03:31:55;1.60;;;0.50;;
46086;SDS011;31824;49.648;8.640;2022-09-21T03:34:58;1.35;;;0.45;;
46086;SDS011;31824;49.648;8.640;2022-09-21T03:37:59;1.38;;;0.40;;
46086;SDS011;31824;49.648;8.640;2022-09-21T03:41:02;0.32;;;0.22;;
46086;SDS011;31824;49.648;8.640;2022-09-21T03:44:04;1.50;;;0.40;;
46086;SDS011;31824;49.648;8.640;2022-09-21T03:47:05;0.25;;;0.20;;
46086;SDS011;31824;49.648;8.640;2022-09-21T03:50:09;4.22;;;0.73;;
46086;SDS011;31824;49.648;8.640;2022-09-21T03:53:11;0.73;;;0.28;;
46086;SDS011;31824;49.648;8.640;2022-09-21T03:56:13;0.75;;;0.32;;
46086;SDS011;31824;49.648;8.640;2022-09-21T03:59:14;1.98;;;0.30;;
46086;SDS011;31824;49.648;8.640;2022-09-21T04:02:16;0.68;;;0.30;;
46086;SDS011;31824;49.648;8.640;2022-09-21T04:05:19;0.40;;;0.30;;
46086;SDS011;31824;49.648;8.640;2022-09-21T04:08:21;3.10;;;0.90;;
46086;SDS011;31824;49.648;8.640;2022-09-21T04:11:22;1.17;;;0.50;;
46086;SDS011;31824;49.648;8.640;2022-09-21T04:14:24;1.30;;;0.40;;
46086;SDS011;31824;49.648;8.640;2022-09-21T04:17:26;0.95;;;0.50;;
46086;SDS011;31824;49.648;8.640;2022-09-21T04:20:32;3.00;;;0.80;;
46086;SDS011;31824;49.648;8.640;2022-09-21T04:23:33;2.42;;;0.93;;
46086;SDS011;31824;49.648;8.640;2022-09-21T04:26:35;1.13;;;0.43;;
46086;SDS011;31824;49.648;8.640;2022-09-21T04:29:37;1.05;;;0.50;;
46086;SDS011;31824;49.648;8.640;2022-09-21T04:32:39;0.47;;;0.30;;
46086;SDS011;31824;49.648;8.640;2022-09-21T04:35:42;2.65;;;0.50;;
46086;SDS011;31824;49.648;8.640;2022-09-21T04:38:44;1.42;;;0.40;;
46086;SDS011;31824;49.648;8.640;2022-09-21T04:41:46;0.98;;;0.52;;
46086;SDS011;31824;49.648;8.640;2022-09-21T04:44:48;1.02;;;0.32;;
46086;SDS011;31824;49.648;8.640;2022-09-21T04:47:50;1.08;;;0.40;;
46086;SDS011;31824;49.648;8.640;2022-09-21T04:50:53;1.75;;;1.15;;
46086;SDS011;31824;49.648;8.640;2022-09-21T04:53:55;0.40;;;0.20;;
46086;SDS011;31824;49.648;8.640;2022-09-21T04:56:56;0.80;;;0.40;;
46086;SDS011;31824;49.648;8.640;2022-09-21T04:59:58;2.47;;;0.60;;
46086;SDS011;31824;49.648;8.640;2022-09-21T05:03:00;1.02;;;0.50;;
46086;SDS011;31824;49.648;8.640;2022-09-21T05:06:03;2.13;;;0.70;;
46086;SDS011;31824;49.648;8.640;2022-09-21T05:09:05;1.02;;;0.30;;
46086;SDS011;31824;49.648;8.640;2022-09-21T05:12:26;1.52;;;0.52;;
46086;SDS011;31824;49.648;8.640;2022-09-21T05:15:27;1.25;;;0.65;;
46086;SDS011;31824;49.648;8.640;2022-09-21T05:18:29;1.27;;;0.68;;
46086;SDS011;31824;49.648;8.640;2022-09-21T05:21:32;1.80;;;0.75;;
46086;SDS011;31824;49.648;8.640;2022-09-21T05:24:34;1.85;;;0.75;;
46086;SDS011;31824;49.648;8.640;2022-09-21T05:27:35;1.85;;;0.75;;
46086;SDS011;31824;49.648;8.640;2022-09-21T05:30:37;2.20;;;0.60;;
46086;SDS011;31824;49.648;8.640;2022-09-21T05:34:02;2.25;;;0.70;;
46086;SDS011;31824;49.648;8.640;2022-09-21T05:37:16;1.92;;;0.95;;
46086;SDS011;31824;49.648;8.640;2022-09-21T05:40:36;2.83;;;1.33;;
46086;SDS011;31824;49.648;8.640;2022-09-21T05:43:39;2.50;;;0.82;;
46086;SDS011;31824;49.648;8.640;2022-09-21T05:46:41;2.13;;;0.85;;
46086;SDS011;31824;49.648;8.640;2022-09-21T05:49:57;2.70;;;1.08;;
46086;SDS011;31824;49.648;8.640;2022-09-21T05:53:08;5.45;;;1.40;;
46086;SDS011;31824;49.648;8.640;2022-09-21T05:56:30;1.20;;;0.70;;
46086;SDS011;31824;49.648;8.640;2022-09-21T05:59:49;2.08;;;1.00;;
46086;SDS011;31824;49.648;8.640;2022-09-21T06:06:21;2.75;;;1.02;;
46086;SDS011;31824;49.648;8.640;2022-09-21T06:09:24;3.38;;;1.02;;
46086;SDS011;31824;49.648;8.640;2022-09-21T06:12:27;3.05;;;1.00;;
46086;SDS011;31824;49.648;8.640;2022-09-21T06:15:28;2.53;;;0.88;;
46086;SDS011;31824;49.648;8.640;2022-09-21T06:18:35;1.45;;;0.73;;
46086;SDS011;31824;49.648;8.640;2022-09-21T06:21:37;1.83;;;1.05;;
46086;SDS011;31824;49.648;8.640;2022-09-21T06:24:40;1.98;;;0.88;;
46086;SDS011;31824;49.648;8.640;2022-09-21T06:27:42;2.65;;;0.82;;
46086;SDS011;31824;49.648;8.640;2022-09-21T06:30:48;2.40;;;0.77;;
46086;SDS011;31824;49.648;8.640;2022-09-21T06:33:51;2.75;;;0.93;;
46086;SDS011;31824;49.648;8.640;2022-09-21T06:36:53;3.47;;;0.98;;
46086;SDS011;31824;49.648;8.640;2022-09-21T06:39:56;1.25;;;0.55;;
46086;SDS011;31824;49.648;8.640;2022-09-21T06:42:58;3.47;;;0.93;;
46086;SDS011;31824;49.648;8.640;2022-09-21T06:46:01;2.05;;;1.00;;
46086;SDS011;31824;49.648;8.640;2022-09-21T06:49:03;2.10;;;1.00;;
46086;SDS011;31824;49.648;8.640;2022-09-21T06:52:05;2.08;;;0.70;;
46086;SDS011;31824;49.648;8.640;2022-09-21T06:55:09;1.30;;;0.68;;
46086;SDS011;31824;49.648;8.640;2022-09-21T06:58:11;3.63;;;1.30;;
46086;SDS011;31824;49.648;8.640;2022-09-21T07:01:15;1.00;;;0.70;;
46086;SDS011;31824;49.648;8.640;2022-09-21T07:04:16;2.58;;;0.95;;
46086;SDS011;31824;49.648;8.640;2022-09-21T07:07:24;1.13;;;0.50;;
46086;SDS011;31824;49.648;8.640;2022-09-21T07:10:28;1.05;;;0.50;;
46086;SDS011;31824;49.648;8.640;2022-09-21T07:13:32;2.17;;;0.88;;
46086;SDS011;31824;49.648;8.640;2022-09-21T07:16:35;1.17;;;0.60;;
46086;SDS011;31824;49.648;8.640;2022-09-21T07:19:37;2.17;;;0.90;;
46086;SDS011;31824;49.648;8.640;2022-09-21T07:22:39;1.52;;;0.70;;
46086;SDS011;31824;49.648;8.640;2022-09-21T07:25:42;5.43;;;1.17;;
46086;SDS011;31824;49.648;8.640;2022-09-21T07:28:45;4.00;;;1.17;;
46086;SDS011;31824;49.648;8.640;2022-09-21T07:31:47;4.15;;;1.50;;
46086;SDS011;31824;49.648;8.640;2022-09-21T07:34:49;2.17;;;1.20;;
46086;SDS011;31824;49.648;8.640;2022-09-21T07:37:53;8.07;;;1.20;;
46086;SDS011;31824;49.648;8.640;2022-09-21T07:40:58;4.25;;;1.00;;
46086;SDS011;31824;49.648;8.640;2022-09-21T07:44:02;2.58;;;1.40;;
46086;SDS011;31824;49.648;8.640;2022-09-21T07:47:04;9.40;;;1.65;;
46086;SDS011;31824;49.648;8.640;2022-09-21T07:50:06;3.40;;;1.63;;
46086;SDS011;31824;49.648;8.640;2022-09-21T07:53:09;2.58;;;1.25;;
46086;SDS011;31824;49.648;8.640;2022-09-21T07:56:13;4.35;;;1.77;;
46086;SDS011;31824;49.648;8.640;2022-09-21T07:59:16;6.28;;;2.10;;
46086;SDS011;31824;49.648;8.640;2022-09-21T08:02:21;5.90;;;1.90;;
46086;SDS011;31824;49.648;8.640;2022-09-21T08:05:22;3.45;;;1.70;;
46086;SDS011;31824;49.648;8.640;2022-09-21T08:08:24;4.22;;;1.80;;
46086;SDS011;31824;49.648;8.640;2022-09-21T08:11:27;3.00;;;1.58;;
46086;SDS011;31824;49.648;8.640;2022-09-21T08:14:30;5.15;;;1.80;;
46086;SDS011;31824;49.648;8.640;2022-09-21T08:17:32;3.60;;;1.55;;
46086;SDS011;31824;49.648;8.640;2022-09-21T08:20:36;3.47;;;1.55;;
46086;SDS011;31824;49.648;8.640;2022-09-21T08:23:38;3.85;;;1.60;;
46086;SDS011;31824;49.648;8.640;2022-09-21T08:26:44;2.95;;;1.23;;
46086;SDS011;31824;49.648;8.640;2022-09-21T08:29:46;4.50;;;1.80;;
46086;SDS011;31824;49.648;8.640;2022-09-21T08:32:48;2.50;;;1.13;;
46086;SDS011;31824;49.648;8.640;2022-09-21T08:35:52;3.70;;;1.45;;
46086;SDS011;31824;49.648;8.640;2022-09-21T08:38:54;4.28;;;1.77;;
46086;SDS011;31824;49.648;8.640;2022-09-21T08:42:02;2.55;;;1.20;;
46086;SDS011;31824;49.648;8.640;2022-09-21T08:45:13;2.88;;;1.25;;
46086;SDS011;31824;49.648;8.640;2022-09-21T08:48:21;2.67;;;0.70;;
46086;SDS011;31824;49.648;8.640;2022-09-21T08:51:33;3.80;;;1.10;;
46086;SDS011;31824;49.648;8.640;2022-09-21T08:54:39;10.55;;;0.70;;
46086;SDS011;31824;49.648;8.640;2022-09-21T08:57:45;2.20;;;1.00;;
46086;SDS011;31824;49.648;8.640;2022-09-21T09:00:47;3.10;;;0.80;;
46086;SDS011;31824;49.648;8.640;2022-09-21T09:03:56;1.40;;;0.60;;
46086;SDS011;31824;49.648;8.640;2022-09-21T09:07:20;2.22;;;0.90;;
46086;SDS011;31824;49.648;8.640;2022-09-21T09:10:35;3.15;;;0.98;;
46086;SDS011;31824;49.648;8.640;2022-09-21T09:14:00;1.35;;;0.65;;
46086;SDS011;31824;49.648;8.640;2022-09-21T09:17:25;2.13;;;0.68;;
46086;SDS011;31824;49.648;8.640;2022-09-21T09:20:34;1.83;;;0.90;;
46086;SDS011;31824;49.648;8.640;2022-09-21T09:23:39;0.93;;;0.45;;
46086;SDS011;31824;49.648;8.640;2022-09-21T09:26:48;2.17;;;0.98;;
46086;SDS011;31824;49.648;8.640;2022-09-21T09:29:56;2.08;;;0.80;;
46086;SDS011;31824;49.648;8.640;2022-09-21T09:36:08;1.15;;;0.50;;
46086;SDS011;31824;49.648;8.640;2022-09-21T09:39:27;2.10;;;0.73;;
46086;SDS011;31824;49.648;8.640;2022-09-21T09:42:34;1.50;;;0.60;;
46086;SDS011;31824;49.648;8.640;2022-09-21T09:45:50;1.55;;;0.60;;
46086;SDS011;31824;49.648;8.640;2022-09-21T09:49:06;1.90;;;0.60;;
46086;SDS011;31824;49.648;8.640;2022-09-21T09:52:14;1.25;;;0.50;;
46086;SDS011;31824;49.648;8.640;2022-09-21T09:55:17;2.38;;;0.77;;
46086;SDS011;31824;49.648;8.640;2022-09-21T09:58:23;1.10;;;0.47;;
46086;SDS011;31824;49.648;8.640;2022-09-21T10:01:38;1.10;;;0.50;;
46086;SDS011;31824;49.648;8.640;2022-09-21T10:04:51;1.55;;;0.30;;
46086;SDS011;31824;49.648;8.640;2022-09-21T10:07:55;0.60;;;0.30;;
46086;SDS011;31824;49.648;8.640;2022-09-21T10:10:57;1.88;;;0.60;;
46086;SDS011;31824;49.648;8.640;2022-09-21T10:14:05;0.77;;;0.32;;
46086;SDS011;31824;49.648;8.640;2022-09-21T10:17:11;1.05;;;0.40;;
46086;SDS011;31824;49.648;8.640;2022-09-21T10:20:18;1.52;;;0.60;;
46086;SDS011;31824;49.648;8.640;2022-09-21T10:23:20;1.63;;;0.50;;
46086;SDS011;31824;49.648;8.640;2022-09-21T10:26:23;1.02;;;0.43;;
46086;SDS011;31824;49.648;8.640;2022-09-21T10:29:32;1.10;;;0.57;;
46086;SDS011;31824;49.648;8.640;2022-09-21T10:32:41;1.15;;;0.32;;
46086;SDS011;31824;49.648;8.640;2022-09-21T10:35:55;1.75;;;0.50;;
46086;SDS011;31824;49.648;8.640;2022-09-21T10:39:11;1.02;;;0.40;;
46086;SDS011;31824;49.648;8.640;2022-09-21T10:42:28;2.08;;;0.57;;
46086;SDS011;31824;49.648;8.640;2022-09-21T10:45:34;1.98;;;0.80;;
46086;SDS011;31824;49.648;8.640;2022-09-21T10:48:38;5.50;;;0.75;;
46086;SDS011;31824;49.648;8.640;2022-09-21T10:51:45;1.50;;;0.55;;
46086;SDS011;31824;49.648;8.640;2022-09-21T10:54:50;2.13;;;0.40;;
46086;SDS011;31824;49.648;8.640;2022-09-21T10:57:54;1.08;;;0.40;;
46086;SDS011;31824;49.648;8.640;2022-09-21T11:01:08;1.55;;;0.40;;
46086;SDS011;31824;49.648;8.640;2022-09-21T11:04:13;1.75;;;0.45;;
46086;SDS011;31824;49.648;8.640;2022-09-21T11:07:21;2.25;;;0.40;;
46086;SDS011;31824;49.648;8.640;2022-09-21T11:10:29;0.73;;;0.30;;
46086;SDS011;31824;49.648;8.640;2022-09-21T11:13:40;1.58;;;0.40;;
46086;SDS011;31824;49.648;8.640;2022-09-21T11:16:50;0.98;;;0.20;;
46086;SDS011;31824;49.648;8.640;2022-09-21T11:20:04;1.23;;;0.30;;
46086;SDS011;31824;49.648;8.640;2022-09-21T11:26:43;0.35;;;0.10;;
46086;SDS011;31824;49.648;8.640;2022-09-21T11:29:56;0.40;;;0.20;;
46086;SDS011;31824;49.648;8.640;2022-09-21T11:33:05;0.35;;;0.17;;
46086;SDS011;31824;49.648;8.640;2022-09-21T11:36:18;0.75;;;0.28;;
46086;SDS011;31824;49.648;8.640;2022-09-21T11:39:32;1.08;;;0.30;;
46086;SDS011;31824;49.648;8.640;2022-09-21T11:42:46;0.65;;;0.20;;
46086;SDS011;31824;49.648;8.640;2022-09-21T11:45:56;0.35;;;0.10;;
46086;SDS011;31824;49.648;8.640;2022-09-21T11:49:13;0.55;;;0.10;;
46086;SDS011;31824;49.648;8.640;2022-09-21T11:52:33;1.38;;;0.28;;
46086;SDS011;31824;49.648;8.640;2022-09-21T11:55:52;0.20;;;0.10;;
46086;SDS011;31824;49.648;8.640;2022-09-21T11:59:17;1.40;;;0.20;;
46086;SDS011;31824;49.648;8.640;2022-09-21T12:02:41;0.88;;;0.08;;
46086;SDS011;31824;49.648;8.640;2022-09-21T12:06:05;0.45;;;0.15;;
46086;SDS011;31824;49.648;8.640;2022-09-21T12:09:25;0.85;;;0.00;;
46086;SDS011;31824;49.648;8.640;2022-09-21T12:12:36;0.57;;;0.30;;
46086;SDS011;31824;49.648;8.640;2022-09-21T12:15:45;1.77;;;0.20;;
46086;SDS011;31824;49.648;8.640;2022-09-21T12:18:53;0.47;;;0.10;;
46086;SDS011;31824;49.648;8.640;2022-09-21T12:22:01;0.85;;;0.10;;
46086;SDS011;31824;49.648;8.640;2022-09-21T12:25:12;0.50;;;0.08;;
46086;SDS011;31824;49.648;8.640;2022-09-21T12:31:23;0.25;;;0.10;;
46086;SDS011;31824;49.648;8.640;2022-09-21T12:34:33;0.10;;;0.00;;
46086;SDS011;31824;49.648;8.640;2022-09-21T12:37:41;0.47;;;0.10;;
46086;SDS011;31824;49.648;8.640;2022-09-21T12:40:50;2.88;;;1.10;;
46086;SDS011;31824;49.648;8.640;2022-09-21T12:43:56;2.28;;;0.45;;
46086;SDS011;31824;49.648;8.640;2022-09-21T12:47:03;0.65;;;0.10;;
46086;SDS011;31824;49.648;8.640;2022-09-21T12:50:14;0.38;;;0.10;;
46086;SDS011;31824;49.648;8.640;2022-09-21T12:53:21;0.28;;;0.05;;
46086;SDS011;31824;49.648;8.640;2022-09-21T12:56:33;1.90;;;0.30;;
46086;SDS011;31824;49.648;8.640;2022-09-21T12:59:42;0.17;;;0.05;;
46086;SDS011;31824;49.648;8.640;2022-09-21T13:02:53;0.45;;;0.15;;
46086;SDS011;31824;49.648;8.640;2022-09-21T13:06:07;0.10;;;0.00;;
46086;SDS011;31824;49.648;8.640;2022-09-21T13:09:37;0.43;;;0.10;;
46086;SDS011;31824;49.648;8.640;2022-09-21T13:12:44;1.20;;;0.20;;
46086;SDS011;31824;49.648;8.640;2022-09-21T13:15:48;0.52;;;0.10;;
46086;SDS011;31824;49.648;8.640;2022-09-21T13:18:53;0.22;;;0.00;;
46086;SDS011;31824;49.648;8.640;2022-09-21T13:22:09;0.40;;;0.10;;
46086;SDS011;31824;49.648;8.640;2022-09-21T13:25:20;0.00;;;0.00;;
46086;SDS011;31824;49.648;8.640;2022-09-21T13:28:38;0.13;;;0.05;;
46086;SDS011;31824;49.648;8.640;2022-09-21T13:31:51;0.68;;;0.10;;
46086;SDS011;31824;49.648;8.640;2022-09-21T13:35:09;0.52;;;0.10;;
46086;SDS011;31824;49.648;8.640;2022-09-21T13:45:54;0.20;;;0.10;;
46086;SDS011;31824;49.648;8.640;2022-09-21T13:48:57;0.00;;;0.00;;
46086;SDS011;31824;49.648;8.640;2022-09-21T13:52:01;0.47;;;0.00;;
46086;SDS011;31824;49.648;8.640;2022-09-21T13:55:06;0.13;;;0.00;;
46086;SDS011;31824;49.648;8.640;2022-09-21T13:58:23;1.33;;;0.20;;
46086;SDS011;31824;49.648;8.640;2022-09-21T14:01:31;0.05;;;0.00;;
46086;SDS011;31824;49.648;8.640;2022-09-21T14:04:51;0.32;;;0.10;;
46086;SDS011;31824;49.648;8.640;2022-09-21T14:07:53;1.25;;;0.10;;
46086;SDS011;31824;49.648;8.640;2022-09-21T14:10:58;0.20;;;0.00;;
46086;SDS011;31824;49.648;8.640;2022-09-21T14:14:07;0.10;;;0.00;;
46086;SDS011;31824;49.648;8.640;2022-09-21T14:17:35;0.32;;;0.00;;
46086;SDS011;31824;49.648;8.640;2022-09-21T14:20:38;0.43;;;0.10;;
46086;SDS011;31824;49.648;8.640;2022-09-21T14:23:40;0.20;;;0.10;;
46086;SDS011;31824;49.648;8.640;2022-09-21T14:26:46;0.75;;;0.20;;
46086;SDS011;31824;49.648;8.640;2022-09-21T14:29:54;0.43;;;0.03;;
46086;SDS011;31824;49.648;8.640;2022-09-21T14:33:18;0.10;;;0.00;;
46086;SDS011;31824;49.648;8.640;2022-09-21T14:36:23;0.30;;;0.08;;
46086;SDS011;31824;49.648;8.640;2022-09-21T14:39:32;0.57;;;0.10;;
46086;SDS011;31824;49.648;8.640;2022-09-21T14:42:37;0.25;;;0.05;;
46086;SDS011;31824;49.648;8.640;2022-09-21T14:45:43;0.17;;;0.00;;
46086;SDS011;31824;49.648;8.640;2022-09-21T14:49:01;0.85;;;0.10;;
46086;SDS011;31824;49.648;8.640;2022-09-21T14:52:17;0.88;;;0.20;;
46086;SDS011;31824;49.648;8.640;2022-09-21T14:55:39;0.30;;;0.10;;
46086;SDS011;31824;49.648;8.640;2022-09-21T14:58:56;0.28;;;0.10;;
46086;SDS011;31824;49.648;8.640;2022-09-21T15:02:13;0.13;;;0.10;;
46086;SDS011;31824;49.648;8.640;2022-09-21T15:05:23;0.63;;;0.10;;
46086;SDS011;31824;49.648;8.640;2022-09-21T15:08:37;0.20;;;0.10;;
46086;SDS011;31824;49.648;8.640;2022-09-21T15:12:13;1.45;;;0.17;;
46086;SDS011;31824;49.648;8.640;2022-09-21T15:15:28;0.10;;;0.05;;
46086;SDS011;31824;49.648;8.640;2022-09-21T15:18:38;1.67;;;0.20;;
46086;SDS011;31824;49.648;8.640;2022-09-21T15:21:43;0.40;;;0.00;;
46086;SDS011;31824;49.648;8.640;2022-09-21T15:24:50;0.50;;;0.13;;
46086;SDS011;31824;49.648;8.640;2022-09-21T15:27:53;1.05;;;0.10;;
46086;SDS011;31824;49.648;8.640;2022-09-21T15:30:55;2.33;;;0.10;;
46086;SDS011;31824;49.648;8.640;2022-09-21T15:33:58;0.60;;;0.20;;
46086;SDS011;31824;49.648;8.640;2022-09-21T15:37:14;0.10;;;0.05;;
46086;SDS011;31824;49.648;8.640;2022-09-21T15:40:18;0.10;;;0.00;;
46086;SDS011;31824;49.648;8.640;2022-09-21T15:43:21;0.10;;;0.08;;
46086;SDS011;31824;49.648;8.640;2022-09-21T15:46:23;0.40;;;0.10;;
46086;SDS011;31824;49.648;8.640;2022-09-21T15:49:26;0.20;;;0.00;;
46086;SDS011;31824;49.648;8.640;2022-09-21T15:52:31;0.47;;;0.10;;
46086;SDS011;31824;49.648;8.640;2022-09-21T15:55:38;0.00;;;0.00;;
46086;SDS011;31824;49.648;8.640;2022-09-21T15:58:41;1.98;;;0.50;;
46086;SDS011;31824;49.648;8.640;2022-09-21T16:01:46;4.50;;;1.80;;
46086;SDS011;31824;49.648;8.640;2022-09-21T16:04:50;4.28;;;1.67;;
46086;SDS011;31824;49.648;8.640;2022-09-21T16:08:04;0.90;;;0.20;;
46086;SDS011;31824;49.648;8.640;2022-09-21T16:11:12;2.05;;;0.70;;
46086;SDS011;31824;49.648;8.640;2022-09-21T16:14:16;2.05;;;0.63;;
46086;SDS011;31824;49.648;8.640;2022-09-21T16:17:37;1.27;;;0.40;;
46086;SDS011;31824;49.648;8.640;2022-09-21T16:20:40;0.20;;;0.10;;
46086;SDS011;31824;49.648;8.640;2022-09-21T16:23:45;0.65;;;0.10;;
46086;SDS011;31824;49.648;8.640;2022-09-21T16:26:54;2.28;;;0.57;;
46086;SDS011;31824;49.648;8.640;2022-09-21T16:29:57;0.90;;;0.20;;
46086;SDS011;31824;49.648;8.640;2022-09-21T16:33:01;0.60;;;0.20;;
46086;SDS011;31824;49.648;8.640;2022-09-21T16:36:11;1.70;;;0.80;;
46086;SDS011;31824;49.648;8.640;2022-09-21T16:39:41;1.98;;;0.30;;
46086;SDS011;31824;49.648;8.640;2022-09-21T16:42:42;0.50;;;0.20;;
46086;SDS011;31824;49.648;8.640;2022-09-21T16:45:44;0.20;;;0.10;;
46086;SDS011;31824;49.648;8.640;2022-09-21T16:48:47;0.50;;;0.20;;
46086;SDS011;31824;49.648;8.640;2022-09-21T16:51:50;0.20;;;0.10;;
46086;SDS011;31824;49.648;8.640;2022-09-21T16:54:54;0.88;;;0.20;;
46086;SDS011;31824;49.648;8.640;2022-09-21T16:57:59;0.80;;;0.20;;
46086;SDS011;31824;49.648;8.640;2022-09-21T17:01:01;0.30;;;0.10;;
46086;SDS011;31824;49.648;8.640;2022-09-21T17:04:03;0.30;;;0.10;;
46086;SDS011;31824;49.648;8.640;2022-09-21T17:07:05;0.80;;;0.20;;
46086;SDS011;31824;49.648;8.640;2022-09-21T17:10:11;1.13;;;0.20;;
46086;SDS011;31824;49.648;8.640;2022-09-21T17:13:16;0.22;;;0.10;;
46086;SDS011;31824;49.648;8.640;2022-09-21T17:19:22;1.92;;;0.20;;
46086;SDS011;31824;49.648;8.640;2022-09-21T17:25:30;0.45;;;0.10;;
46086;SDS011;31824;49.648;8.640;2022-09-21T17:28:35;1.85;;;0.85;;
46086;SDS011;31824;49.648;8.640;2022-09-21T17:31:37;2.65;;;0.70;;
46086;SDS011;31824;49.648;8.640;2022-09-21T17:34:39;1.80;;;0.70;;
46086;SDS011;31824;49.648;8.640;2022-09-21T17:37:42;0.70;;;0.20;;
46086;SDS011;31824;49.648;8.640;2022-09-21T17:40:45;0.50;;;0.10;;
46086;SDS011;31824;49.648;8.640;2022-09-21T17:43:49;0.30;;;0.20;;
46086;SDS011;31824;49.648;8.640;2022-09-21T17:46:58;1.05;;;0.40;;
46086;SDS011;31824;49.648;8.640;2022-09-21T17:50:13;0.38;;;0.10;;
46086;SDS011;31824;49.648;8.640;2022-09-21T17:53:20;0.85;;;0.20;;
46086;SDS011;31824;49.648;8.640;2022-09-21T17:56:38;2.55;;;0.20;;
46086;SDS011;31824;49.648;8.640;2022-09-21T17:59:47;0.38;;;0.10;;
46086;SDS011;31824;49.648;8.640;2022-09-21T18:02:56;0.20;;;0.10;;
46086;SDS011;31824;49.648;8.640;2022-09-21T18:05:58;1.23;;;0.38;;
46086;SDS011;31824;49.648;8.640;2022-09-21T18:09:01;1.05;;;0.20;;
46086;SDS011;31824;49.648;8.640;2022-09-21T18:15:52;4.45;;;0.50;;
46086;SDS011;31824;49.648;8.640;2022-09-21T18:19:05;0.85;;;0.20;;
46086;SDS011;31824;49.648;8.640;2022-09-21T18:22:38;1.15;;;0.20;;
46086;SDS011;31824;49.648;8.640;2022-09-21T18:25:50;0.43;;;0.20;;
46086;SDS011;31824;49.648;8.640;2022-09-21T18:28:56;0.80;;;0.30;;
46086;SDS011;31824;49.648;8.640;2022-09-21T18:32:29;0.50;;;0.20;;
46086;SDS011;31824;49.648;8.640;2022-09-21T18:35:43;1.63;;;0.20;;
46086;SDS011;31824;49.648;8.640;2022-09-21T18:39:03;0.40;;;0.10;;
46086;SDS011;31824;49.648;8.640;2022-09-21T18:42:22;0.30;;;0.15;;
46086;SDS011;31824;49.648;8.640;2022-09-21T18:45:31;0.38;;;0.10;;
46086;SDS011;31824;49.648;8.640;2022-09-21T18:48:41;0.73;;;0.22;;
46086;SDS011;31824;49.648;8.640;2022-09-21T18:51:55;1.55;;;0.40;;
46086;SDS011;31824;49.648;8.640;2022-09-21T18:55:10;0.35;;;0.10;;
46086;SDS011;31824;49.648;8.640;2022-09-21T18:58:23;0.30;;;0.10;;
46086;SDS011;31824;49.648;8.640;2022-09-21T19:01:25;0.25;;;0.10;;
46086;SDS011;31824;49.648;8.640;2022-09-21T19:04:32;0.93;;;0.17;;
46086;SDS011;31824;49.648;8.640;2022-09-21T19:07:34;0.50;;;0.17;;
46086;SDS011;31824;49.648;8.640;2022-09-21T19:10:42;0.65;;;0.25;;
46086;SDS011;31824;49.648;8.640;2022-09-21T19:13:51;0.77;;;0.20;;
46086;SDS011;31824;49.648;8.640;2022-09-21T19:17:03;0.52;;;0.20;;
46086;SDS011;31824;49.648;8.640;2022-09-21T19:20:21;0.50;;;0.20;;
46086;SDS011;31824;49.648;8.640;2022-09-21T19:23:33;1.27;;;0.20;;